Overview Statistics Trail Chart Weather Telemetry Raw packets
 

This is the latest recevied weather packets stored in our database for station/object S51UL-6. If no packets are shown the sender has not sent any weather packets the latest 10 day(s).

<< 72 73 74 75 76 77 78 >>
Time Temp. Humidity Pressure Rain* Wind** Luminosity Snow
1787962052 25° C 61% 1012.1 hPa 0 mm - - -
1787961753 24.44° C 63% 1012.3 hPa 0 mm - - -
1787961453 24.44° C 64% 1012.2 hPa 0 mm - - -
1787961154 24.44° C 65% 1012.3 hPa 0 mm - - -
1787960853 24.44° C 66% 1012.2 hPa 0 mm - - -
1787959954 24.44° C 66% 1012.5 hPa 0 mm - - -
1787959653 24.44° C 66% 1012.5 hPa 0 mm - - -
1787959052 24.44° C 65% 1012.6 hPa 0 mm - - -
1787958154 25° C 63% 1012.6 hPa 0 mm - - -
1787957555 25.56° C 63% 1012.6 hPa 0 mm - - -
1787957254 25.56° C 62% 1012.6 hPa 0 mm - - -
1787956653 26.11° C 61% 1012.7 hPa 0 mm - - -
1787956354 26.11° C 61% 1013 hPa 0 mm - - -
1787955456 26.67° C 61% 1013.9 hPa 0 mm - - -
1787955155 26.67° C 63% 1014.3 hPa 0 mm - - -
1787954553 24.44° C 73% 1014.6 hPa 0 mm - - -
1787954254 23.33° C 79% 1014.2 hPa 0 mm - - -
1787953954 22.22° C 85% 1013.6 hPa 0 mm - - -
1787953654 21.67° C 85% 1013 hPa 0 mm - - -
1787952754 21.11° C 85% 1012.6 hPa 0 mm - - -
1787952454 21.67° C 85% 1012.5 hPa 0 mm - - -
1787952154 21.67° C 85% 1012.6 hPa 0 mm - - -
1787951855 21.67° C 84% 1012.7 hPa 0 mm - - -
1787951254 21.67° C 83% 1012.6 hPa 0 mm - - -
1787950955 21.67° C 83% 1012.7 hPa 0 mm - - -

* Rain latest hour (hover to see other rain measurements)
** Current wind speed in m/s (hover to see current wind gust speed)